WetterOnline ( https://www.wetteronline.de )

Wetter aktuell Brotterode-Trusetal

Aktuelles Wetter: Meiningen (453m)

6-stündlich | Neueste Meldungen
Ortszeit Temperatur Wetter
Mi, 29.05. 14:00 14.6° C leichter Regen
Mi, 29.05. 8:00 10.7° C leichter Regen
Mi, 29.05. 2:00 10.4° C bewölkt
Di, 28.05. 20:00 15.6° C leicht bewölkt
Di, 28.05. 14:00 14.5° C bedeckt
Di, 28.05. 8:00 11.4° C leicht bewölkt
Di, 28.05. 2:00 12.3° C wolkig
Mo, 27.05. 20:00 14.3° C Regen
Ortszeit Temperatur Wetter
Mi, 29.05. 14:10 14.6° C bewölkt
Mi, 29.05. 14:00 14.6° C leichter Regen
Mi, 29.05. 13:50 14.6° C leichter Regen
Mi, 29.05. 13:40 14.5° C bewölkt
Mi, 29.05. 13:30 14.6° C bewölkt
Mi, 29.05. 13:20 14.6° C bewölkt
Mi, 29.05. 13:00 15.2° C Sprühregen
Mi, 29.05. 12:30 14.8° C bedeckt
Mi, 29.05. 12:00 14.8° C bedeckt
Mi, 29.05. 11:30 14.2° C bedeckt
Ortszeit Relative Feuchte Sichtweite
Mi, 29.05. 14:00 79% 16 km
Mi, 29.05. 8:00 81% 45 km
Mi, 29.05. 2:00 77% >70 km
Di, 28.05. 20:00 48% 55 km
Di, 28.05. 14:00 55% >70 km
Di, 28.05. 8:00 79% 45 km
Di, 28.05. 2:00 95% 8 km
Mo, 27.05. 20:00 92% 8 km
Ortszeit Relative Feuchte Sichtweite
Mi, 29.05. 14:10 80% -
Mi, 29.05. 14:00 79% 16 km
Mi, 29.05. 13:50 79% -
Mi, 29.05. 13:40 77% -
Mi, 29.05. 13:30 77% >70 km
Mi, 29.05. 13:20 77% -
Mi, 29.05. 13:00 74% 35 km
Mi, 29.05. 12:30 73% 60 km
Mi, 29.05. 12:00 71% >70 km
Mi, 29.05. 11:30 73% 55 km
Ortszeit Niederschlagsmenge Niederschlagsart
Mi, 29.05. 14:00 0.1 l/m2 in 6 Std. Regen
Mi, 29.05. 8:00 0.1 l/m2 in 12 Std. Regen
Mi, 29.05. 2:00 0.0 l/m2 in 6 Std. -
Di, 28.05. 20:00 0.0 l/m2 in 12 Std. -
Di, 28.05. 14:00 0.1 l/m2 in 6 Std. -
Di, 28.05. 8:00 1 l/m2 in 12 Std. Regen
Di, 28.05. 2:00 1 l/m2 in 6 Std. Regen
Mo, 27.05. 20:00 4 l/m2 in 12 Std. Regen
Ortszeit Niederschlagsmenge Niederschlagsart
Mi, 29.05. 14:10 keine Meldung -
Mi, 29.05. 14:00 <0.05 l/m2 in 1 Std. Regen
Mi, 29.05. 13:50 keine Meldung -
Mi, 29.05. 13:40 keine Meldung -
Mi, 29.05. 13:30 <0.05 l/m2 in 30 Min Schneeregen
Mi, 29.05. 13:20 keine Meldung -
Mi, 29.05. 13:00 <0.05 l/m2 in 1 Std. Regen
Mi, 29.05. 12:30 0.0 l/m2 in 30 Min -
Mi, 29.05. 12:00 0.0 l/m2 in 1 Std. -
Mi, 29.05. 11:30 0.0 l/m2 in 30 Min -
Ortszeit Stärke Spitze Richtung
km/h Bft. km/h Grad Sektor
Mi, 29.05. 14:00 14 3 43 190° S
Mi, 29.05. 8:00 9 2 17 150° SO
Mi, 29.05. 2:00 7 2 14 170° S
Di, 28.05. 20:00 11 2 32 200° S
Di, 28.05. 14:00 11 2 29 240° SW
Di, 28.05. 8:00 11 2 25 280° W
Di, 28.05. 2:00 4 1 18 50° NO
Mo, 27.05. 20:00 11 2 25 210° SW
Ortszeit Stärke Spitze Richtung
km/h Bft. km/h Grad Sektor
Mi, 29.05. 14:10 14 3 - 180° S
Mi, 29.05. 14:00 14 3 43 190° S
Mi, 29.05. 13:50 14 3 - 190° S
Mi, 29.05. 13:40 20 4 - 200° S
Mi, 29.05. 13:30 20 4 35 190° S
Mi, 29.05. 13:20 20 4 - 190° S
Mi, 29.05. 13:00 18 3 36 190° S
Mi, 29.05. 12:30 15 3 26 200° S
Mi, 29.05. 12:00 13 3 24 180° S
Mi, 29.05. 11:30 13 3 24 180° S
Ortszeit Untergrenze Bedeckung Gattung
total tief tief mittel hoch
Mi, 29.05. 14:00 540 m 8/8 8/8 - - -
Mi, 29.05. 8:00 2100 m 8/8 7/8 - - -
Mi, 29.05. 2:00 1500 m 8/8 7/8 - - -
Di, 28.05. 20:00 1500 m 3/8 3/8 - - -
Di, 28.05. 14:00 1170 m 8/8 8/8 - - -
Di, 28.05. 8:00 3000 m 2/8 1/8 - - -
Di, 28.05. 2:00 2100 m 7/8 1/8 - - -
Mo, 27.05. 20:00 1380 m 7/8 7/8 - - -
Ortszeit Bedeckungsgrad in Achtel und Wolkenuntergrenze
Mi, 29.05. 14:10 7
Mi, 29.05. 14:00 3(540m) 7(840m) 8(1080m)
Mi, 29.05. 13:50 3(540m) 7(840m) 8(1080m)
Mi, 29.05. 13:40 7
Mi, 29.05. 13:30 2(540m) 7(1170m) 7(1800m)
Mi, 29.05. 13:20 2(540m) 7(1170m) 7(1800m)
Mi, 29.05. 13:00 4(630m) 8(1800m) 8(2400m)
Mi, 29.05. 12:30 8(870m)
Mi, 29.05. 12:00 7(840m) 8(1410m) 8(1500m)
Mi, 29.05. 11:30 7(870m) 8(1320m)
Ortszeit Luftdruck NN (hPa) Tendenz (hPa in 3 Std.)
Mi, 29.05. 14:00 1013 - 0,8
Mi, 29.05. 8:00 1016 - 1,0
Mi, 29.05. 2:00 1018 - 1,2
Di, 28.05. 20:00 1018 - 0,4
Di, 28.05. 14:00 1019 + 0,1
Di, 28.05. 8:00 1019 + 1,2
Di, 28.05. 2:00 1017 + 0,1
Mo, 27.05. 20:00 1016 - 0,4
Ortszeit Luftdruck NN (hPa) Tendenz (hPa in 3 Std.)
Mi, 29.05. 14:10 1013 keine Meldung
Mi, 29.05. 14:00 1013 - 0,8
Mi, 29.05. 13:50 1013 keine Meldung
Mi, 29.05. 13:40 1013 keine Meldung
Mi, 29.05. 13:30 1013 - 0,7
Mi, 29.05. 13:20 1013 keine Meldung
Mi, 29.05. 13:00 1013 - 0,5
Mi, 29.05. 12:30 1013 - 0,6
Mi, 29.05. 12:00 1014 - 0,5
Mi, 29.05. 11:30 1014 - 0,9
Ortszeit Schneehöhe (cm)
Mi, 29.05. 14:00 0
Mi, 29.05. 8:00 0
Mi, 29.05. 2:00 0
Di, 28.05. 20:00 0
Di, 28.05. 14:00 0
Di, 28.05. 8:00 0
Di, 28.05. 2:00 0
Mo, 27.05. 20:00 0
Ortszeit Schneehöhe (cm)
Mi, 29.05. 14:10 -
Mi, 29.05. 14:00 0
Mi, 29.05. 13:50 0
Mi, 29.05. 13:40 -
Mi, 29.05. 13:30 0
Mi, 29.05. 13:20 0
Mi, 29.05. 13:00 0
Mi, 29.05. 12:30 0
Mi, 29.05. 12:00 0
Mi, 29.05. 11:30 0
Link zu dieser Seite / Seite empfehlen

Das Wetter in ...